sensor_id;sensor_type;location;lat;lon;timestamp;temperature;humidity
24260;DHT22;12384;48.112;18.418;2022-10-12T00:01:01;12.20;80.40
24260;DHT22;12384;48.112;18.418;2022-10-12T00:03:29;12.10;81.60
24260;DHT22;12384;48.112;18.418;2022-10-12T00:06:02;12.20;82.30
24260;DHT22;12384;48.112;18.418;2022-10-12T00:08:33;12.20;82.70
24260;DHT22;12384;48.112;18.418;2022-10-12T00:11:02;12.20;84.80
24260;DHT22;12384;48.112;18.418;2022-10-12T00:13:31;12.20;87.20
24260;DHT22;12384;48.112;18.418;2022-10-12T00:16:02;12.20;87.60
24260;DHT22;12384;48.112;18.418;2022-10-12T00:18:31;12.30;88.50
24260;DHT22;12384;48.112;18.418;2022-10-12T00:21:00;12.30;88.10
24260;DHT22;12384;48.112;18.418;2022-10-12T00:23:29;12.30;88.20
24260;DHT22;12384;48.112;18.418;2022-10-12T00:26:02;12.30;89.30
24260;DHT22;12384;48.112;18.418;2022-10-12T00:28:31;12.40;89.60
24260;DHT22;12384;48.112;18.418;2022-10-12T00:31:00;12.40;89.70
24260;DHT22;12384;48.112;18.418;2022-10-12T00:33:28;12.40;89.40
24260;DHT22;12384;48.112;18.418;2022-10-12T00:35:56;12.40;89.30
24260;DHT22;12384;48.112;18.418;2022-10-12T00:38:25;12.40;89.40
24260;DHT22;12384;48.112;18.418;2022-10-12T00:40:53;12.40;89.30
24260;DHT22;12384;48.112;18.418;2022-10-12T00:43:29;12.40;88.80
24260;DHT22;12384;48.112;18.418;2022-10-12T00:45:59;12.40;88.90
24260;DHT22;12384;48.112;18.418;2022-10-12T00:48:29;12.30;88.80
24260;DHT22;12384;48.112;18.418;2022-10-12T00:50:59;12.30;89.90
24260;DHT22;12384;48.112;18.418;2022-10-12T00:53:32;12.30;90.00
24260;DHT22;12384;48.112;18.418;2022-10-12T00:56:07;12.30;90.30
24260;DHT22;12384;48.112;18.418;2022-10-12T00:58:38;12.30;90.10
24260;DHT22;12384;48.112;18.418;2022-10-12T01:01:06;12.30;90.00
24260;DHT22;12384;48.112;18.418;2022-10-12T01:03:36;12.40;90.10
24260;DHT22;12384;48.112;18.418;2022-10-12T01:06:05;12.30;90.10
24260;DHT22;12384;48.112;18.418;2022-10-12T01:08:34;12.40;90.40
24260;DHT22;12384;48.112;18.418;2022-10-12T01:11:04;12.40;90.50
24260;DHT22;12384;48.112;18.418;2022-10-12T01:13:32;12.40;90.50
24260;DHT22;12384;48.112;18.418;2022-10-12T01:16:07;12.40;90.50
24260;DHT22;12384;48.112;18.418;2022-10-12T01:18:44;12.40;90.60
24260;DHT22;12384;48.112;18.418;2022-10-12T01:21:17;12.40;90.70
24260;DHT22;12384;48.112;18.418;2022-10-12T01:24:14;12.40;90.60
24260;DHT22;12384;48.112;18.418;2022-10-12T01:27:02;12.50;90.50
24260;DHT22;12384;48.112;18.418;2022-10-12T01:29:49;12.50;90.40
24260;DHT22;12384;48.112;18.418;2022-10-12T01:32:21;12.40;90.30
24260;DHT22;12384;48.112;18.418;2022-10-12T01:34:56;12.40;90.20
24260;DHT22;12384;48.112;18.418;2022-10-12T01:37:33;12.40;90.20
24260;DHT22;12384;48.112;18.418;2022-10-12T01:40:09;12.40;90.20
24260;DHT22;12384;48.112;18.418;2022-10-12T01:42:41;12.40;90.00
24260;DHT22;12384;48.112;18.418;2022-10-12T01:45:14;12.40;89.90
24260;DHT22;12384;48.112;18.418;2022-10-12T01:47:45;12.40;89.90
24260;DHT22;12384;48.112;18.418;2022-10-12T01:50:16;12.40;89.90
24260;DHT22;12384;48.112;18.418;2022-10-12T01:52:52;12.40;89.90
24260;DHT22;12384;48.112;18.418;2022-10-12T01:55:34;12.40;89.70
24260;DHT22;12384;48.112;18.418;2022-10-12T01:58:28;12.30;89.40
24260;DHT22;12384;48.112;18.418;2022-10-12T02:01:06;12.30;89.80
24260;DHT22;12384;48.112;18.418;2022-10-12T02:03:43;12.30;90.10
24260;DHT22;12384;48.112;18.418;2022-10-12T02:06:15;12.30;90.30
24260;DHT22;12384;48.112;18.418;2022-10-12T02:08:49;12.30;90.40
24260;DHT22;12384;48.112;18.418;2022-10-12T02:11:24;12.30;90.50
24260;DHT22;12384;48.112;18.418;2022-10-12T02:13:56;12.30;90.60
24260;DHT22;12384;48.112;18.418;2022-10-12T02:16:33;12.30;90.70
24260;DHT22;12384;48.112;18.418;2022-10-12T02:19:05;12.30;90.90
24260;DHT22;12384;48.112;18.418;2022-10-12T02:21:34;12.30;91.00
24260;DHT22;12384;48.112;18.418;2022-10-12T02:24:05;12.40;91.20
24260;DHT22;12384;48.112;18.418;2022-10-12T02:26:37;12.40;91.20
24260;DHT22;12384;48.112;18.418;2022-10-12T02:29:11;12.40;91.20
24260;DHT22;12384;48.112;18.418;2022-10-12T02:31:46;12.40;91.20
24260;DHT22;12384;48.112;18.418;2022-10-12T02:34:20;12.40;91.20
24260;DHT22;12384;48.112;18.418;2022-10-12T02:36:52;12.50;91.20
24260;DHT22;12384;48.112;18.418;2022-10-12T02:39:27;12.50;91.30
24260;DHT22;12384;48.112;18.418;2022-10-12T02:42:03;12.50;91.40
24260;DHT22;12384;48.112;18.418;2022-10-12T02:44:37;12.50;91.60
24260;DHT22;12384;48.112;18.418;2022-10-12T02:47:08;12.50;92.00
24260;DHT22;12384;48.112;18.418;2022-10-12T02:49:39;12.50;92.20
24260;DHT22;12384;48.112;18.418;2022-10-12T02:52:08;12.50;92.60
24260;DHT22;12384;48.112;18.418;2022-10-12T02:54:37;12.60;92.50
24260;DHT22;12384;48.112;18.418;2022-10-12T02:57:06;12.60;92.50
24260;DHT22;12384;48.112;18.418;2022-10-12T02:59:35;12.60;92.30
24260;DHT22;12384;48.112;18.418;2022-10-12T03:02:03;12.60;92.30
24260;DHT22;12384;48.112;18.418;2022-10-12T03:04:34;12.60;92.20
24260;DHT22;12384;48.112;18.418;2022-10-12T03:07:03;12.60;92.20
24260;DHT22;12384;48.112;18.418;2022-10-12T03:09:31;12.70;92.20
24260;DHT22;12384;48.112;18.418;2022-10-12T03:11:59;12.70;92.20
24260;DHT22;12384;48.112;18.418;2022-10-12T03:14:27;12.70;92.40
24260;DHT22;12384;48.112;18.418;2022-10-12T03:16:57;12.70;92.40
24260;DHT22;12384;48.112;18.418;2022-10-12T03:19:25;12.70;92.30
24260;DHT22;12384;48.112;18.418;2022-10-12T03:21:54;12.80;92.20
24260;DHT22;12384;48.112;18.418;2022-10-12T03:24:23;12.80;92.50
24260;DHT22;12384;48.112;18.418;2022-10-12T03:26:51;12.80;92.00
24260;DHT22;12384;48.112;18.418;2022-10-12T03:29:20;12.80;91.90
24260;DHT22;12384;48.112;18.418;2022-10-12T03:31:48;12.80;91.70
24260;DHT22;12384;48.112;18.418;2022-10-12T03:34:16;12.80;91.50
24260;DHT22;12384;48.112;18.418;2022-10-12T03:36:44;12.80;91.40
24260;DHT22;12384;48.112;18.418;2022-10-12T03:39:14;12.80;91.40
24260;DHT22;12384;48.112;18.418;2022-10-12T03:41:42;12.70;91.50
24260;DHT22;12384;48.112;18.418;2022-10-12T03:44:10;12.70;91.80
24260;DHT22;12384;48.112;18.418;2022-10-12T03:46:39;12.70;92.50
24260;DHT22;12384;48.112;18.418;2022-10-12T03:49:07;12.70;92.70
24260;DHT22;12384;48.112;18.418;2022-10-12T03:51:35;12.70;92.60
24260;DHT22;12384;48.112;18.418;2022-10-12T03:54:04;12.70;92.60
24260;DHT22;12384;48.112;18.418;2022-10-12T03:56:34;12.70;92.60
24260;DHT22;12384;48.112;18.418;2022-10-12T03:59:02;12.70;92.70
24260;DHT22;12384;48.112;18.418;2022-10-12T04:01:31;12.70;92.60
24260;DHT22;12384;48.112;18.418;2022-10-12T04:04:00;12.70;92.70
24260;DHT22;12384;48.112;18.418;2022-10-12T04:06:28;12.80;92.80
24260;DHT22;12384;48.112;18.418;2022-10-12T04:08:56;12.80;92.90
24260;DHT22;12384;48.112;18.418;2022-10-12T04:11:24;12.80;93.00
24260;DHT22;12384;48.112;18.418;2022-10-12T04:13:54;12.80;92.60
24260;DHT22;12384;48.112;18.418;2022-10-12T04:16:22;12.80;92.40
24260;DHT22;12384;48.112;18.418;2022-10-12T04:18:56;12.70;92.50
24260;DHT22;12384;48.112;18.418;2022-10-12T04:21:24;12.70;92.40
24260;DHT22;12384;48.112;18.418;2022-10-12T04:23:53;12.70;92.40
24260;DHT22;12384;48.112;18.418;2022-10-12T04:26:21;12.70;92.70
24260;DHT22;12384;48.112;18.418;2022-10-12T04:28:49;12.70;92.60
24260;DHT22;12384;48.112;18.418;2022-10-12T04:31:19;12.60;92.40
24260;DHT22;12384;48.112;18.418;2022-10-12T04:33:47;12.60;92.50
24260;DHT22;12384;48.112;18.418;2022-10-12T04:36:15;12.60;92.50
24260;DHT22;12384;48.112;18.418;2022-10-12T04:38:44;12.60;92.80
24260;DHT22;12384;48.112;18.418;2022-10-12T04:41:12;12.50;92.70
24260;DHT22;12384;48.112;18.418;2022-10-12T04:43:40;12.50;92.90
24260;DHT22;12384;48.112;18.418;2022-10-12T04:46:09;12.50;92.50
24260;DHT22;12384;48.112;18.418;2022-10-12T04:48:38;12.50;92.20
24260;DHT22;12384;48.112;18.418;2022-10-12T04:51:07;12.40;92.40
24260;DHT22;12384;48.112;18.418;2022-10-12T04:53:35;12.40;92.80
24260;DHT22;12384;48.112;18.418;2022-10-12T04:56:04;12.30;92.70
24260;DHT22;12384;48.112;18.418;2022-10-12T04:58:33;12.30;92.80
24260;DHT22;12384;48.112;18.418;2022-10-12T05:01:01;12.30;93.00
24260;DHT22;12384;48.112;18.418;2022-10-12T05:03:30;12.30;93.80
24260;DHT22;12384;48.112;18.418;2022-10-12T05:05:59;12.20;93.70
24260;DHT22;12384;48.112;18.418;2022-10-12T05:08:28;12.20;93.40
24260;DHT22;12384;48.112;18.418;2022-10-12T05:10:56;12.10;93.40
24260;DHT22;12384;48.112;18.418;2022-10-12T05:13:25;12.10;93.70
24260;DHT22;12384;48.112;18.418;2022-10-12T05:15:54;12.00;94.60
24260;DHT22;12384;48.112;18.418;2022-10-12T05:18:23;12.00;94.40
24260;DHT22;12384;48.112;18.418;2022-10-12T05:20:52;12.00;94.70
24260;DHT22;12384;48.112;18.418;2022-10-12T05:23:24;12.00;95.20
24260;DHT22;12384;48.112;18.418;2022-10-12T05:25:53;12.00;95.60
24260;DHT22;12384;48.112;18.418;2022-10-12T05:28:22;12.00;95.70
24260;DHT22;12384;48.112;18.418;2022-10-12T05:30:50;11.90;95.90
24260;DHT22;12384;48.112;18.418;2022-10-12T05:33:19;12.00;96.30
24260;DHT22;12384;48.112;18.418;2022-10-12T05:35:48;12.00;96.70
24260;DHT22;12384;48.112;18.418;2022-10-12T05:38:23;12.00;96.90
24260;DHT22;12384;48.112;18.418;2022-10-12T05:40:52;12.00;97.20
24260;DHT22;12384;48.112;18.418;2022-10-12T05:43:26;12.00;97.40
24260;DHT22;12384;48.112;18.418;2022-10-12T05:45:55;12.10;98.00
24260;DHT22;12384;48.112;18.418;2022-10-12T05:48:23;12.10;98.10
24260;DHT22;12384;48.112;18.418;2022-10-12T05:50:52;12.10;98.50
24260;DHT22;12384;48.112;18.418;2022-10-12T05:53:21;12.20;98.70
24260;DHT22;12384;48.112;18.418;2022-10-12T05:55:55;12.20;98.80
24260;DHT22;12384;48.112;18.418;2022-10-12T05:58:24;12.30;98.80
24260;DHT22;12384;48.112;18.418;2022-10-12T06:00:54;12.40;98.80
24260;DHT22;12384;48.112;18.418;2022-10-12T06:03:22;12.40;98.70
24260;DHT22;12384;48.112;18.418;2022-10-12T06:05:52;12.50;98.90
24260;DHT22;12384;48.112;18.418;2022-10-12T06:08:21;12.50;98.90
24260;DHT22;12384;48.112;18.418;2022-10-12T06:10:49;12.60;99.10
24260;DHT22;12384;48.112;18.418;2022-10-12T06:13:19;12.60;99.10
24260;DHT22;12384;48.112;18.418;2022-10-12T06:15:48;12.70;99.10
24260;DHT22;12384;48.112;18.418;2022-10-12T06:18:17;12.70;98.90
24260;DHT22;12384;48.112;18.418;2022-10-12T06:20:46;12.80;98.80
24260;DHT22;12384;48.112;18.418;2022-10-12T06:23:15;12.90;98.70
24260;DHT22;12384;48.112;18.418;2022-10-12T06:25:44;12.90;98.50
24260;DHT22;12384;48.112;18.418;2022-10-12T06:28:14;13.00;98.40
24260;DHT22;12384;48.112;18.418;2022-10-12T06:30:43;13.10;98.20
24260;DHT22;12384;48.112;18.418;2022-10-12T06:33:12;13.10;98.10
24260;DHT22;12384;48.112;18.418;2022-10-12T06:35:40;13.10;98.00
24260;DHT22;12384;48.112;18.418;2022-10-12T06:38:08;13.20;98.10
24260;DHT22;12384;48.112;18.418;2022-10-12T06:40:36;13.20;98.10
24260;DHT22;12384;48.112;18.418;2022-10-12T06:43:05;13.30;98.10
24260;DHT22;12384;48.112;18.418;2022-10-12T06:45:33;13.30;98.00
24260;DHT22;12384;48.112;18.418;2022-10-12T06:48:04;13.40;98.10
24260;DHT22;12384;48.112;18.418;2022-10-12T06:50:32;13.50;98.10
24260;DHT22;12384;48.112;18.418;2022-10-12T06:53:01;13.50;98.10
24260;DHT22;12384;48.112;18.418;2022-10-12T06:55:29;13.60;98.20
24260;DHT22;12384;48.112;18.418;2022-10-12T06:57:58;13.70;98.40
24260;DHT22;12384;48.112;18.418;2022-10-12T07:00:26;13.80;98.60
24260;DHT22;12384;48.112;18.418;2022-10-12T07:02:54;13.90;98.50
24260;DHT22;12384;48.112;18.418;2022-10-12T07:05:24;14.00;98.40
24260;DHT22;12384;48.112;18.418;2022-10-12T07:07:53;14.10;98.30
24260;DHT22;12384;48.112;18.418;2022-10-12T07:10:22;14.20;98.20
24260;DHT22;12384;48.112;18.418;2022-10-12T07:12:50;14.30;98.20
24260;DHT22;12384;48.112;18.418;2022-10-12T07:15:19;14.40;98.10
24260;DHT22;12384;48.112;18.418;2022-10-12T07:17:47;14.40;97.60
24260;DHT22;12384;48.112;18.418;2022-10-12T07:20:16;14.50;97.10
24260;DHT22;12384;48.112;18.418;2022-10-12T07:22:45;14.50;96.00
24260;DHT22;12384;48.112;18.418;2022-10-12T07:25:14;14.60;95.80
24260;DHT22;12384;48.112;18.418;2022-10-12T07:27:42;14.60;95.40
24260;DHT22;12384;48.112;18.418;2022-10-12T07:30:14;14.70;95.40
24260;DHT22;12384;48.112;18.418;2022-10-12T07:32:42;14.70;95.00
24260;DHT22;12384;48.112;18.418;2022-10-12T07:35:12;14.80;94.60
24260;DHT22;12384;48.112;18.418;2022-10-12T07:37:40;14.80;94.20
24260;DHT22;12384;48.112;18.418;2022-10-12T07:40:10;14.90;94.10
24260;DHT22;12384;48.112;18.418;2022-10-12T07:42:38;15.00;94.10
24260;DHT22;12384;48.112;18.418;2022-10-12T07:45:27;15.00;93.70
24260;DHT22;12384;48.112;18.418;2022-10-12T07:47:55;15.10;93.70
24260;DHT22;12384;48.112;18.418;2022-10-12T07:50:24;15.20;93.60
24260;DHT22;12384;48.112;18.418;2022-10-12T07:52:52;15.30;93.60
24260;DHT22;12384;48.112;18.418;2022-10-12T07:55:22;15.40;93.40
24260;DHT22;12384;48.112;18.418;2022-10-12T07:57:50;15.50;93.40
24260;DHT22;12384;48.112;18.418;2022-10-12T08:00:18;15.70;93.30
24260;DHT22;12384;48.112;18.418;2022-10-12T08:02:48;15.80;92.10
24260;DHT22;12384;48.112;18.418;2022-10-12T08:05:16;15.90;91.00
24260;DHT22;12384;48.112;18.418;2022-10-12T08:07:47;15.90;88.40
24260;DHT22;12384;48.112;18.418;2022-10-12T08:10:15;16.00;84.70
24260;DHT22;12384;48.112;18.418;2022-10-12T08:12:45;16.00;84.20
24260;DHT22;12384;48.112;18.418;2022-10-12T08:15:18;16.00;83.50
24260;DHT22;12384;48.112;18.418;2022-10-12T08:17:46;16.00;82.70
24260;DHT22;12384;48.112;18.418;2022-10-12T08:20:15;16.00;82.10
24260;DHT22;12384;48.112;18.418;2022-10-12T08:22:43;16.00;81.40
24260;DHT22;12384;48.112;18.418;2022-10-12T08:25:11;15.90;80.50
24260;DHT22;12384;48.112;18.418;2022-10-12T08:27:40;15.90;80.50
24260;DHT22;12384;48.112;18.418;2022-10-12T08:30:10;15.80;80.20
24260;DHT22;12384;48.112;18.418;2022-10-12T08:32:39;15.80;80.20
24260;DHT22;12384;48.112;18.418;2022-10-12T08:35:07;15.70;80.20
24260;DHT22;12384;48.112;18.418;2022-10-12T08:37:36;15.70;81.20
24260;DHT22;12384;48.112;18.418;2022-10-12T08:40:06;15.60;81.10
24260;DHT22;12384;48.112;18.418;2022-10-12T08:42:44;15.60;81.70
24260;DHT22;12384;48.112;18.418;2022-10-12T08:45:37;15.60;82.70
24260;DHT22;12384;48.112;18.418;2022-10-12T08:48:11;15.70;83.30
24260;DHT22;12384;48.112;18.418;2022-10-12T08:50:46;15.70;83.90
24260;DHT22;12384;48.112;18.418;2022-10-12T08:53:20;15.70;84.40
24260;DHT22;12384;48.112;18.418;2022-10-12T08:55:51;15.70;85.00
24260;DHT22;12384;48.112;18.418;2022-10-12T08:58:23;15.80;85.50
24260;DHT22;12384;48.112;18.418;2022-10-12T09:00:57;15.80;85.40
24260;DHT22;12384;48.112;18.418;2022-10-12T09:03:36;15.80;85.00
24260;DHT22;12384;48.112;18.418;2022-10-12T09:06:11;15.90;85.00
24260;DHT22;12384;48.112;18.418;2022-10-12T09:08:54;15.90;85.20
24260;DHT22;12384;48.112;18.418;2022-10-12T09:11:35;16.00;85.60
24260;DHT22;12384;48.112;18.418;2022-10-12T09:14:10;16.00;85.40
24260;DHT22;12384;48.112;18.418;2022-10-12T09:16:46;16.00;85.80
24260;DHT22;12384;48.112;18.418;2022-10-12T09:19:18;16.10;85.10
24260;DHT22;12384;48.112;18.418;2022-10-12T09:21:48;16.20;85.00
24260;DHT22;12384;48.112;18.418;2022-10-12T09:24:19;16.20;83.30
24260;DHT22;12384;48.112;18.418;2022-10-12T09:26:51;16.30;83.30
24260;DHT22;12384;48.112;18.418;2022-10-12T09:29:25;16.30;82.80
24260;DHT22;12384;48.112;18.418;2022-10-12T09:32:15;16.40;82.10
24260;DHT22;12384;48.112;18.418;2022-10-12T09:34:47;16.40;82.10
24260;DHT22;12384;48.112;18.418;2022-10-12T09:37:18;16.50;82.50
24260;DHT22;12384;48.112;18.418;2022-10-12T09:39:48;16.50;82.10
24260;DHT22;12384;48.112;18.418;2022-10-12T09:42:17;16.60;82.20
24260;DHT22;12384;48.112;18.418;2022-10-12T09:44:46;16.70;80.90
24260;DHT22;12384;48.112;18.418;2022-10-12T09:47:28;16.70;80.50
24260;DHT22;12384;48.112;18.418;2022-10-12T09:49:59;16.80;79.70
24260;DHT22;12384;48.112;18.418;2022-10-12T09:52:36;16.80;78.90
24260;DHT22;12384;48.112;18.418;2022-10-12T09:55:21;16.90;78.30
24260;DHT22;12384;48.112;18.418;2022-10-12T09:57:53;16.90;77.90
24260;DHT22;12384;48.112;18.418;2022-10-12T10:00:24;16.90;77.60
24260;DHT22;12384;48.112;18.418;2022-10-12T10:02:55;16.90;76.60
24260;DHT22;12384;48.112;18.418;2022-10-12T10:05:25;16.90;75.70
24260;DHT22;12384;48.112;18.418;2022-10-12T10:08:13;16.90;75.00
24260;DHT22;12384;48.112;18.418;2022-10-12T10:10:48;16.90;74.40
24260;DHT22;12384;48.112;18.418;2022-10-12T10:13:16;16.90;73.90
24260;DHT22;12384;48.112;18.418;2022-10-12T10:15:47;16.90;73.60
24260;DHT22;12384;48.112;18.418;2022-10-12T10:18:26;16.80;73.10
24260;DHT22;12384;48.112;18.418;2022-10-12T10:20:58;16.90;73.10
24260;DHT22;12384;48.112;18.418;2022-10-12T10:23:28;16.80;72.90
24260;DHT22;12384;48.112;18.418;2022-10-12T10:26:03;16.80;73.20
24260;DHT22;12384;48.112;18.418;2022-10-12T10:28:34;16.80;74.10
24260;DHT22;12384;48.112;18.418;2022-10-12T10:31:04;16.90;74.70
24260;DHT22;12384;48.112;18.418;2022-10-12T10:33:35;16.90;75.00
24260;DHT22;12384;48.112;18.418;2022-10-12T10:36:07;16.90;74.60
24260;DHT22;12384;48.112;18.418;2022-10-12T10:38:54;16.90;74.10
24260;DHT22;12384;48.112;18.418;2022-10-12T10:41:26;17.00;73.40
24260;DHT22;12384;48.112;18.418;2022-10-12T10:43:55;16.90;72.60
24260;DHT22;12384;48.112;18.418;2022-10-12T10:46:24;16.90;71.60
24260;DHT22;12384;48.112;18.418;2022-10-12T10:48:56;16.90;71.30
24260;DHT22;12384;48.112;18.418;2022-10-12T10:51:45;16.90;71.10
24260;DHT22;12384;48.112;18.418;2022-10-12T10:54:29;16.90;70.60
24260;DHT22;12384;48.112;18.418;2022-10-12T10:57:01;16.80;70.40
24260;DHT22;12384;48.112;18.418;2022-10-12T10:59:43;16.80;70.40
24260;DHT22;12384;48.112;18.418;2022-10-12T11:02:20;16.80;70.60
24260;DHT22;12384;48.112;18.418;2022-10-12T11:04:57;16.80;71.10
24260;DHT22;12384;48.112;18.418;2022-10-12T11:07:30;16.80;71.50
24260;DHT22;12384;48.112;18.418;2022-10-12T11:10:09;16.80;71.90
24260;DHT22;12384;48.112;18.418;2022-10-12T11:12:44;16.80;71.60
24260;DHT22;12384;48.112;18.418;2022-10-12T11:15:19;16.80;71.80
24260;DHT22;12384;48.112;18.418;2022-10-12T11:17:51;16.80;72.20
24260;DHT22;12384;48.112;18.418;2022-10-12T11:20:35;16.80;71.90
24260;DHT22;12384;48.112;18.418;2022-10-12T11:23:16;16.80;71.90
24260;DHT22;12384;48.112;18.418;2022-10-12T11:26:00;16.80;72.00
24260;DHT22;12384;48.112;18.418;2022-10-12T11:28:31;16.80;72.20
24260;DHT22;12384;48.112;18.418;2022-10-12T11:31:01;16.80;72.70
24260;DHT22;12384;48.112;18.418;2022-10-12T11:33:33;16.90;73.00
24260;DHT22;12384;48.112;18.418;2022-10-12T11:36:09;16.90;73.00
24260;DHT22;12384;48.112;18.418;2022-10-12T11:38:41;16.90;72.80
24260;DHT22;12384;48.112;18.418;2022-10-12T11:41:12;16.90;72.80
24260;DHT22;12384;48.112;18.418;2022-10-12T11:44:04;16.90;72.80
24260;DHT22;12384;48.112;18.418;2022-10-12T11:46:35;16.90;72.90
24260;DHT22;12384;48.112;18.418;2022-10-12T11:49:08;16.90;72.80
24260;DHT22;12384;48.112;18.418;2022-10-12T11:51:44;16.90;72.60
24260;DHT22;12384;48.112;18.418;2022-10-12T11:54:19;16.90;72.20
24260;DHT22;12384;48.112;18.418;2022-10-12T11:56:52;16.90;72.10
24260;DHT22;12384;48.112;18.418;2022-10-12T11:59:27;16.90;72.30
24260;DHT22;12384;48.112;18.418;2022-10-12T12:02:02;16.90;72.80
24260;DHT22;12384;48.112;18.418;2022-10-12T12:04:33;16.90;73.30
24260;DHT22;12384;48.112;18.418;2022-10-12T12:07:38;16.90;73.40
24260;DHT22;12384;48.112;18.418;2022-10-12T12:13:19;16.90;73.70
24260;DHT22;12384;48.112;18.418;2022-10-12T12:22:25;17.00;75.10
24260;DHT22;12384;48.112;18.418;2022-10-12T12:25:24;17.10;74.90
24260;DHT22;12384;48.112;18.418;2022-10-12T12:27:57;17.10;74.60
24260;DHT22;12384;48.112;18.418;2022-10-12T12:30:32;17.20;74.70
24260;DHT22;12384;48.112;18.418;2022-10-12T12:33:05;17.30;75.10
24260;DHT22;12384;48.112;18.418;2022-10-12T12:35:52;17.40;74.80
24260;DHT22;12384;48.112;18.418;2022-10-12T12:38:25;17.40;74.70
24260;DHT22;12384;48.112;18.418;2022-10-12T12:41:03;17.50;74.80
24260;DHT22;12384;48.112;18.418;2022-10-12T12:43:59;17.60;73.70
24260;DHT22;12384;48.112;18.418;2022-10-12T12:49:59;17.70;72.20
24260;DHT22;12384;48.112;18.418;2022-10-12T12:52:33;17.70;71.70
24260;DHT22;12384;48.112;18.418;2022-10-12T12:58:43;17.80;70.60
24260;DHT22;12384;48.112;18.418;2022-10-12T13:01:27;17.80;70.20
24260;DHT22;12384;48.112;18.418;2022-10-12T13:04:28;17.80;69.80
24260;DHT22;12384;48.112;18.418;2022-10-12T13:07:42;17.90;69.40
24260;DHT22;12384;48.112;18.418;2022-10-12T13:10:21;17.90;69.30
24260;DHT22;12384;48.112;18.418;2022-10-12T13:13:16;18.00;69.70
24260;DHT22;12384;48.112;18.418;2022-10-12T13:16:13;18.10;69.30
24260;DHT22;12384;48.112;18.418;2022-10-12T13:19:05;18.10;68.80
24260;DHT22;12384;48.112;18.418;2022-10-12T13:21:39;18.10;67.40
24260;DHT22;12384;48.112;18.418;2022-10-12T13:24:14;18.20;67.30
24260;DHT22;12384;48.112;18.418;2022-10-12T13:26:45;18.20;66.90
24260;DHT22;12384;48.112;18.418;2022-10-12T13:29:21;18.20;66.90
24260;DHT22;12384;48.112;18.418;2022-10-12T13:31:53;18.30;66.70
24260;DHT22;12384;48.112;18.418;2022-10-12T13:34:30;18.30;66.30
24260;DHT22;12384;48.112;18.418;2022-10-12T13:37:07;18.30;65.60
24260;DHT22;12384;48.112;18.418;2022-10-12T13:39:37;18.30;65.10
24260;DHT22;12384;48.112;18.418;2022-10-12T13:42:07;18.20;64.60
24260;DHT22;12384;48.112;18.418;2022-10-12T13:44:37;18.20;64.50
24260;DHT22;12384;48.112;18.418;2022-10-12T13:47:22;18.10;64.20
24260;DHT22;12384;48.112;18.418;2022-10-12T13:49:51;18.10;64.10
24260;DHT22;12384;48.112;18.418;2022-10-12T13:52:24;18.10;64.10
24260;DHT22;12384;48.112;18.418;2022-10-12T13:54:58;18.10;65.00
24260;DHT22;12384;48.112;18.418;2022-10-12T13:57:29;18.00;64.20
24260;DHT22;12384;48.112;18.418;2022-10-12T14:00:02;18.00;64.20
24260;DHT22;12384;48.112;18.418;2022-10-12T14:02:36;18.00;64.30
24260;DHT22;12384;48.112;18.418;2022-10-12T14:05:15;18.00;64.40
24260;DHT22;12384;48.112;18.418;2022-10-12T14:07:44;18.00;64.40
24260;DHT22;12384;48.112;18.418;2022-10-12T14:10:17;18.00;64.30
24260;DHT22;12384;48.112;18.418;2022-10-12T14:12:49;18.00;64.40
24260;DHT22;12384;48.112;18.418;2022-10-12T14:15:19;18.00;64.40
24260;DHT22;12384;48.112;18.418;2022-10-12T14:17:49;18.00;64.60
24260;DHT22;12384;48.112;18.418;2022-10-12T14:20:27;18.00;64.70
24260;DHT22;12384;48.112;18.418;2022-10-12T14:22:58;18.00;64.40
24260;DHT22;12384;48.112;18.418;2022-10-12T14:25:28;18.00;64.30
24260;DHT22;12384;48.112;18.418;2022-10-12T14:27:58;18.00;64.40
24260;DHT22;12384;48.112;18.418;2022-10-12T14:30:28;18.00;64.40
24260;DHT22;12384;48.112;18.418;2022-10-12T14:33:10;18.00;64.40
24260;DHT22;12384;48.112;18.418;2022-10-12T14:35:39;17.90;64.30
24260;DHT22;12384;48.112;18.418;2022-10-12T14:38:35;17.90;64.40
24260;DHT22;12384;48.112;18.418;2022-10-12T14:41:29;17.90;64.50
24260;DHT22;12384;48.112;18.418;2022-10-12T14:44:08;17.90;64.60
24260;DHT22;12384;48.112;18.418;2022-10-12T14:46:39;17.90;64.50
24260;DHT22;12384;48.112;18.418;2022-10-12T14:49:16;17.80;64.50
24260;DHT22;12384;48.112;18.418;2022-10-12T14:51:45;17.80;64.70
24260;DHT22;12384;48.112;18.418;2022-10-12T14:54:14;17.80;65.00
24260;DHT22;12384;48.112;18.418;2022-10-12T14:56:42;17.80;65.10
24260;DHT22;12384;48.112;18.418;2022-10-12T14:59:11;17.70;65.10
24260;DHT22;12384;48.112;18.418;2022-10-12T15:01:39;17.70;65.20
24260;DHT22;12384;48.112;18.418;2022-10-12T15:04:13;17.70;65.50
24260;DHT22;12384;48.112;18.418;2022-10-12T15:06:41;17.70;66.50
24260;DHT22;12384;48.112;18.418;2022-10-12T15:09:16;17.70;67.00
24260;DHT22;12384;48.112;18.418;2022-10-12T15:11:44;17.80;66.90
24260;DHT22;12384;48.112;18.418;2022-10-12T15:14:13;17.80;66.90
24260;DHT22;12384;48.112;18.418;2022-10-12T15:16:41;17.90;66.90
24260;DHT22;12384;48.112;18.418;2022-10-12T15:19:09;17.90;66.60
24260;DHT22;12384;48.112;18.418;2022-10-12T15:21:39;17.90;66.40
24260;DHT22;12384;48.112;18.418;2022-10-12T15:24:13;17.90;66.00
24260;DHT22;12384;48.112;18.418;2022-10-12T15:26:42;17.90;65.70
24260;DHT22;12384;48.112;18.418;2022-10-12T15:29:10;17.80;65.20
24260;DHT22;12384;48.112;18.418;2022-10-12T15:31:38;17.70;64.80
24260;DHT22;12384;48.112;18.418;2022-10-12T15:34:10;17.70;64.50
24260;DHT22;12384;48.112;18.418;2022-10-12T15:36:40;17.60;64.30
24260;DHT22;12384;48.112;18.418;2022-10-12T15:39:09;17.50;64.20
24260;DHT22;12384;48.112;18.418;2022-10-12T15:41:37;17.40;64.10
24260;DHT22;12384;48.112;18.418;2022-10-12T15:44:07;17.30;64.10
24260;DHT22;12384;48.112;18.418;2022-10-12T15:46:36;17.30;64.10
24260;DHT22;12384;48.112;18.418;2022-10-12T15:49:04;17.10;64.10
24260;DHT22;12384;48.112;18.418;2022-10-12T15:51:35;17.10;64.20
24260;DHT22;12384;48.112;18.418;2022-10-12T15:54:06;17.00;64.30
24260;DHT22;12384;48.112;18.418;2022-10-12T15:56:34;16.90;64.60
24260;DHT22;12384;48.112;18.418;2022-10-12T15:59:03;16.80;64.40
24260;DHT22;12384;48.112;18.418;2022-10-12T16:01:33;16.70;64.50
24260;DHT22;12384;48.112;18.418;2022-10-12T16:04:03;16.60;64.60